sensor_id;sensor_type;location;lat;lon;timestamp;P1;durP1;ratioP1;P2;durP2;ratioP2
44766;SDS011;30487;48.716;9.272;2023-04-24T00:01:39;2.15;;;0.73;;
44766;SDS011;30487;48.716;9.272;2023-04-24T00:04:05;2.38;;;0.70;;
44766;SDS011;30487;48.716;9.272;2023-04-24T00:06:32;1.90;;;0.50;;
44766;SDS011;30487;48.716;9.272;2023-04-24T00:09:01;1.58;;;0.68;;
44766;SDS011;30487;48.716;9.272;2023-04-24T00:11:28;1.48;;;0.43;;
44766;SDS011;30487;48.716;9.272;2023-04-24T00:13:54;1.27;;;0.52;;
44766;SDS011;30487;48.716;9.272;2023-04-24T00:16:21;1.45;;;0.50;;
44766;SDS011;30487;48.716;9.272;2023-04-24T00:18:47;1.85;;;0.50;;
44766;SDS011;30487;48.716;9.272;2023-04-24T00:21:13;2.00;;;0.65;;
44766;SDS011;30487;48.716;9.272;2023-04-24T00:23:39;0.60;;;0.40;;
44766;SDS011;30487;48.716;9.272;2023-04-24T00:26:05;1.10;;;0.50;;
44766;SDS011;30487;48.716;9.272;2023-04-24T00:28:31;2.45;;;0.50;;
44766;SDS011;30487;48.716;9.272;2023-04-24T00:30:56;1.15;;;0.50;;
44766;SDS011;30487;48.716;9.272;2023-04-24T00:33:22;1.77;;;0.65;;
44766;SDS011;30487;48.716;9.272;2023-04-24T00:35:48;2.10;;;0.60;;
44766;SDS011;30487;48.716;9.272;2023-04-24T00:38:13;1.55;;;0.50;;
44766;SDS011;30487;48.716;9.272;2023-04-24T00:40:39;1.52;;;0.57;;
44766;SDS011;30487;48.716;9.272;2023-04-24T00:43:04;2.50;;;0.60;;
44766;SDS011;30487;48.716;9.272;2023-04-24T00:45:30;1.63;;;0.60;;
44766;SDS011;30487;48.716;9.272;2023-04-24T00:47:56;1.90;;;0.50;;
44766;SDS011;30487;48.716;9.272;2023-04-24T00:50:22;2.25;;;0.90;;
44766;SDS011;30487;48.716;9.272;2023-04-24T00:52:49;1.75;;;0.60;;
44766;SDS011;30487;48.716;9.272;2023-04-24T00:55:15;1.73;;;0.60;;
44766;SDS011;30487;48.716;9.272;2023-04-24T00:57:41;1.42;;;0.50;;
44766;SDS011;30487;48.716;9.272;2023-04-24T01:00:08;1.77;;;0.50;;
44766;SDS011;30487;48.716;9.272;2023-04-24T01:02:40;1.90;;;0.60;;
44766;SDS011;30487;48.716;9.272;2023-04-24T01:05:10;1.20;;;0.50;;
44766;SDS011;30487;48.716;9.272;2023-04-24T01:07:40;2.65;;;0.60;;
44766;SDS011;30487;48.716;9.272;2023-04-24T01:10:10;1.27;;;0.50;;
44766;SDS011;30487;48.716;9.272;2023-04-24T01:12:37;0.90;;;0.50;;
44766;SDS011;30487;48.716;9.272;2023-04-24T01:15:03;1.63;;;0.55;;
44766;SDS011;30487;48.716;9.272;2023-04-24T01:17:31;2.63;;;0.40;;
44766;SDS011;30487;48.716;9.272;2023-04-24T01:19:57;2.80;;;0.40;;
44766;SDS011;30487;48.716;9.272;2023-04-24T01:22:24;0.65;;;0.50;;
44766;SDS011;30487;48.716;9.272;2023-04-24T01:24:51;1.52;;;0.75;;
44766;SDS011;30487;48.716;9.272;2023-04-24T01:27:17;3.40;;;0.70;;
44766;SDS011;30487;48.716;9.272;2023-04-24T01:29:44;1.23;;;0.50;;
44766;SDS011;30487;48.716;9.272;2023-04-24T01:32:10;1.17;;;0.50;;
44766;SDS011;30487;48.716;9.272;2023-04-24T01:34:36;1.60;;;0.63;;
44766;SDS011;30487;48.716;9.272;2023-04-24T01:37:02;1.23;;;0.70;;
44766;SDS011;30487;48.716;9.272;2023-04-24T01:39:28;1.90;;;0.57;;
44766;SDS011;30487;48.716;9.272;2023-04-24T01:41:54;0.82;;;0.50;;
44766;SDS011;30487;48.716;9.272;2023-04-24T01:44:20;4.45;;;0.60;;
44766;SDS011;30487;48.716;9.272;2023-04-24T01:46:46;1.77;;;0.60;;
44766;SDS011;30487;48.716;9.272;2023-04-24T01:49:12;1.33;;;0.60;;
44766;SDS011;30487;48.716;9.272;2023-04-24T01:51:38;1.25;;;0.50;;
44766;SDS011;30487;48.716;9.272;2023-04-24T01:54:03;1.50;;;0.50;;
44766;SDS011;30487;48.716;9.272;2023-04-24T01:56:30;2.20;;;0.65;;
44766;SDS011;30487;48.716;9.272;2023-04-24T01:58:58;4.05;;;0.70;;
44766;SDS011;30487;48.716;9.272;2023-04-24T02:01:24;1.58;;;0.70;;
44766;SDS011;30487;48.716;9.272;2023-04-24T02:03:50;2.25;;;0.47;;
44766;SDS011;30487;48.716;9.272;2023-04-24T02:06:16;2.55;;;0.70;;
44766;SDS011;30487;48.716;9.272;2023-04-24T02:08:41;1.25;;;0.45;;
44766;SDS011;30487;48.716;9.272;2023-04-24T02:11:10;1.58;;;0.50;;
44766;SDS011;30487;48.716;9.272;2023-04-24T02:13:36;1.45;;;0.45;;
44766;SDS011;30487;48.716;9.272;2023-04-24T02:16:01;5.22;;;0.73;;
44766;SDS011;30487;48.716;9.272;2023-04-24T02:18:27;2.53;;;0.43;;
44766;SDS011;30487;48.716;9.272;2023-04-24T02:20:53;2.25;;;0.40;;
44766;SDS011;30487;48.716;9.272;2023-04-24T02:23:18;0.93;;;0.40;;
44766;SDS011;30487;48.716;9.272;2023-04-24T02:25:44;1.27;;;0.40;;
44766;SDS011;30487;48.716;9.272;2023-04-24T02:28:10;1.65;;;0.60;;
44766;SDS011;30487;48.716;9.272;2023-04-24T02:30:36;2.22;;;0.50;;
44766;SDS011;30487;48.716;9.272;2023-04-24T02:33:01;2.25;;;0.50;;
44766;SDS011;30487;48.716;9.272;2023-04-24T02:35:28;1.27;;;0.52;;
44766;SDS011;30487;48.716;9.272;2023-04-24T02:37:53;0.40;;;0.30;;
44766;SDS011;30487;48.716;9.272;2023-04-24T02:40:19;1.55;;;0.47;;
44766;SDS011;30487;48.716;9.272;2023-04-24T02:42:44;2.17;;;0.43;;
44766;SDS011;30487;48.716;9.272;2023-04-24T02:45:10;0.65;;;0.35;;
44766;SDS011;30487;48.716;9.272;2023-04-24T02:47:36;2.65;;;0.40;;
44766;SDS011;30487;48.716;9.272;2023-04-24T02:50:02;1.98;;;0.40;;
44766;SDS011;30487;48.716;9.272;2023-04-24T02:52:28;1.75;;;0.50;;
44766;SDS011;30487;48.716;9.272;2023-04-24T02:54:53;1.35;;;0.40;;
44766;SDS011;30487;48.716;9.272;2023-04-24T02:57:19;1.13;;;0.40;;
44766;SDS011;30487;48.716;9.272;2023-04-24T02:59:45;0.82;;;0.40;;
44766;SDS011;30487;48.716;9.272;2023-04-24T03:02:10;2.05;;;0.55;;
44766;SDS011;30487;48.716;9.272;2023-04-24T03:04:36;0.80;;;0.45;;
44766;SDS011;30487;48.716;9.272;2023-04-24T03:07:01;2.53;;;0.60;;
44766;SDS011;30487;48.716;9.272;2023-04-24T03:09:27;0.68;;;0.40;;
44766;SDS011;30487;48.716;9.272;2023-04-24T03:11:53;2.42;;;0.95;;
44766;SDS011;30487;48.716;9.272;2023-04-24T03:14:18;1.85;;;0.52;;
44766;SDS011;30487;48.716;9.272;2023-04-24T03:16:44;1.20;;;0.50;;
44766;SDS011;30487;48.716;9.272;2023-04-24T03:19:09;1.80;;;0.60;;
44766;SDS011;30487;48.716;9.272;2023-04-24T03:21:35;3.70;;;0.52;;
44766;SDS011;30487;48.716;9.272;2023-04-24T03:24:05;0.90;;;0.30;;
44766;SDS011;30487;48.716;9.272;2023-04-24T03:26:32;1.83;;;0.50;;
44766;SDS011;30487;48.716;9.272;2023-04-24T03:28:57;0.90;;;0.40;;
44766;SDS011;30487;48.716;9.272;2023-04-24T03:31:23;4.32;;;0.60;;
44766;SDS011;30487;48.716;9.272;2023-04-24T03:33:48;2.08;;;0.47;;
44766;SDS011;30487;48.716;9.272;2023-04-24T03:36:14;5.55;;;0.68;;
44766;SDS011;30487;48.716;9.272;2023-04-24T03:38:40;1.55;;;0.55;;
44766;SDS011;30487;48.716;9.272;2023-04-24T03:41:05;1.50;;;0.40;;
44766;SDS011;30487;48.716;9.272;2023-04-24T03:43:31;2.65;;;0.82;;
44766;SDS011;30487;48.716;9.272;2023-04-24T03:45:58;1.98;;;0.73;;
44766;SDS011;30487;48.716;9.272;2023-04-24T03:48:23;1.85;;;0.50;;
44766;SDS011;30487;48.716;9.272;2023-04-24T03:50:49;3.55;;;0.50;;
44766;SDS011;30487;48.716;9.272;2023-04-24T03:53:15;0.95;;;0.40;;
44766;SDS011;30487;48.716;9.272;2023-04-24T03:55:40;1.15;;;0.40;;
44766;SDS011;30487;48.716;9.272;2023-04-24T03:58:06;1.00;;;0.40;;
44766;SDS011;30487;48.716;9.272;2023-04-24T04:00:32;1.45;;;0.40;;
44766;SDS011;30487;48.716;9.272;2023-04-24T04:02:58;1.45;;;0.40;;
44766;SDS011;30487;48.716;9.272;2023-04-24T04:05:23;1.25;;;0.43;;
44766;SDS011;30487;48.716;9.272;2023-04-24T04:07:49;1.08;;;0.43;;
44766;SDS011;30487;48.716;9.272;2023-04-24T04:10:15;1.15;;;0.40;;
44766;SDS011;30487;48.716;9.272;2023-04-24T04:12:42;1.30;;;0.50;;
44766;SDS011;30487;48.716;9.272;2023-04-24T04:15:07;1.02;;;0.52;;
44766;SDS011;30487;48.716;9.272;2023-04-24T04:17:33;1.13;;;0.45;;
44766;SDS011;30487;48.716;9.272;2023-04-24T04:19:59;1.95;;;0.63;;
44766;SDS011;30487;48.716;9.272;2023-04-24T04:22:25;0.68;;;0.40;;
44766;SDS011;30487;48.716;9.272;2023-04-24T04:24:50;1.05;;;0.47;;
44766;SDS011;30487;48.716;9.272;2023-04-24T04:27:16;0.73;;;0.50;;
44766;SDS011;30487;48.716;9.272;2023-04-24T04:29:43;2.42;;;0.60;;
44766;SDS011;30487;48.716;9.272;2023-04-24T04:32:09;0.47;;;0.40;;
44766;SDS011;30487;48.716;9.272;2023-04-24T04:34:36;0.95;;;0.30;;
44766;SDS011;30487;48.716;9.272;2023-04-24T04:37:02;0.65;;;0.32;;
44766;SDS011;30487;48.716;9.272;2023-04-24T04:39:28;0.70;;;0.38;;
44766;SDS011;30487;48.716;9.272;2023-04-24T04:41:55;0.98;;;0.50;;
44766;SDS011;30487;48.716;9.272;2023-04-24T04:44:21;2.03;;;0.63;;
44766;SDS011;30487;48.716;9.272;2023-04-24T04:46:46;4.43;;;0.82;;
44766;SDS011;30487;48.716;9.272;2023-04-24T04:49:12;2.97;;;0.70;;
44766;SDS011;30487;48.716;9.272;2023-04-24T04:51:41;2.53;;;0.60;;
44766;SDS011;30487;48.716;9.272;2023-04-24T04:54:07;1.42;;;0.50;;
44766;SDS011;30487;48.716;9.272;2023-04-24T04:56:32;1.05;;;0.73;;
44766;SDS011;30487;48.716;9.272;2023-04-24T04:58:58;1.35;;;0.52;;
44766;SDS011;30487;48.716;9.272;2023-04-24T05:01:24;2.13;;;0.57;;
44766;SDS011;30487;48.716;9.272;2023-04-24T05:03:52;1.13;;;0.50;;
44766;SDS011;30487;48.716;9.272;2023-04-24T05:06:18;1.73;;;0.60;;
44766;SDS011;30487;48.716;9.272;2023-04-24T05:08:43;1.92;;;0.60;;
44766;SDS011;30487;48.716;9.272;2023-04-24T05:11:09;1.83;;;0.50;;
44766;SDS011;30487;48.716;9.272;2023-04-24T05:13:35;1.35;;;0.50;;
44766;SDS011;30487;48.716;9.272;2023-04-24T05:16:00;2.22;;;0.60;;
44766;SDS011;30487;48.716;9.272;2023-04-24T05:18:26;3.50;;;0.70;;
44766;SDS011;30487;48.716;9.272;2023-04-24T05:20:51;1.08;;;0.60;;
44766;SDS011;30487;48.716;9.272;2023-04-24T05:23:17;0.90;;;0.60;;
44766;SDS011;30487;48.716;9.272;2023-04-24T05:25:42;2.45;;;0.60;;
44766;SDS011;30487;48.716;9.272;2023-04-24T05:28:08;1.48;;;0.70;;
44766;SDS011;30487;48.716;9.272;2023-04-24T05:30:33;5.28;;;0.65;;
44766;SDS011;30487;48.716;9.272;2023-04-24T05:32:59;1.50;;;0.70;;
44766;SDS011;30487;48.716;9.272;2023-04-24T05:35:25;1.90;;;0.70;;
44766;SDS011;30487;48.716;9.272;2023-04-24T05:37:50;1.83;;;0.73;;
44766;SDS011;30487;48.716;9.272;2023-04-24T05:40:16;1.40;;;0.70;;
44766;SDS011;30487;48.716;9.272;2023-04-24T05:42:41;1.23;;;0.50;;
44766;SDS011;30487;48.716;9.272;2023-04-24T05:45:07;1.63;;;0.60;;
44766;SDS011;30487;48.716;9.272;2023-04-24T05:47:34;2.17;;;0.70;;
44766;SDS011;30487;48.716;9.272;2023-04-24T05:50:00;2.20;;;0.70;;
44766;SDS011;30487;48.716;9.272;2023-04-24T05:52:25;1.60;;;0.65;;
44766;SDS011;30487;48.716;9.272;2023-04-24T05:54:51;2.25;;;0.70;;
44766;SDS011;30487;48.716;9.272;2023-04-24T05:57:16;2.10;;;0.70;;
44766;SDS011;30487;48.716;9.272;2023-04-24T05:59:42;1.75;;;0.98;;
44766;SDS011;30487;48.716;9.272;2023-04-24T06:02:07;2.88;;;0.65;;
44766;SDS011;30487;48.716;9.272;2023-04-24T06:04:33;3.85;;;1.00;;
44766;SDS011;30487;48.716;9.272;2023-04-24T06:06:59;4.22;;;1.00;;
44766;SDS011;30487;48.716;9.272;2023-04-24T06:09:25;2.55;;;1.00;;
44766;SDS011;30487;48.716;9.272;2023-04-24T06:11:51;2.00;;;0.82;;
44766;SDS011;30487;48.716;9.272;2023-04-24T06:14:19;3.92;;;0.88;;
44766;SDS011;30487;48.716;9.272;2023-04-24T06:16:45;2.25;;;0.85;;
44766;SDS011;30487;48.716;9.272;2023-04-24T06:19:11;3.15;;;1.00;;
44766;SDS011;30487;48.716;9.272;2023-04-24T06:21:36;4.25;;;1.08;;
44766;SDS011;30487;48.716;9.272;2023-04-24T06:24:02;1.75;;;0.80;;
44766;SDS011;30487;48.716;9.272;2023-04-24T06:26:29;2.58;;;0.98;;
44766;SDS011;30487;48.716;9.272;2023-04-24T06:28:55;3.15;;;0.90;;
44766;SDS011;30487;48.716;9.272;2023-04-24T06:31:20;2.20;;;0.85;;
44766;SDS011;30487;48.716;9.272;2023-04-24T06:33:47;2.03;;;0.80;;
44766;SDS011;30487;48.716;9.272;2023-04-24T06:36:14;1.58;;;0.90;;
44766;SDS011;30487;48.716;9.272;2023-04-24T06:38:40;4.07;;;1.10;;
44766;SDS011;30487;48.716;9.272;2023-04-24T06:41:07;1.80;;;0.90;;
44766;SDS011;30487;48.716;9.272;2023-04-24T06:43:32;3.08;;;0.90;;
44766;SDS011;30487;48.716;9.272;2023-04-24T06:45:59;1.80;;;1.25;;
44766;SDS011;30487;48.716;9.272;2023-04-24T06:48:25;2.15;;;1.17;;
44766;SDS011;30487;48.716;9.272;2023-04-24T06:50:51;2.45;;;1.27;;
44766;SDS011;30487;48.716;9.272;2023-04-24T06:53:17;1.73;;;0.93;;
44766;SDS011;30487;48.716;9.272;2023-04-24T06:55:42;2.05;;;0.98;;
44766;SDS011;30487;48.716;9.272;2023-04-24T06:58:10;1.70;;;0.82;;
44766;SDS011;30487;48.716;9.272;2023-04-24T07:00:36;2.90;;;1.45;;
44766;SDS011;30487;48.716;9.272;2023-04-24T07:03:01;4.00;;;1.33;;
44766;SDS011;30487;48.716;9.272;2023-04-24T07:05:27;2.47;;;1.27;;
44766;SDS011;30487;48.716;9.272;2023-04-24T07:07:54;2.42;;;1.08;;
44766;SDS011;30487;48.716;9.272;2023-04-24T07:10:19;2.85;;;1.10;;
44766;SDS011;30487;48.716;9.272;2023-04-24T07:12:46;1.40;;;1.00;;
44766;SDS011;30487;48.716;9.272;2023-04-24T07:15:12;2.38;;;0.82;;
44766;SDS011;30487;48.716;9.272;2023-04-24T07:17:38;2.38;;;1.10;;
44766;SDS011;30487;48.716;9.272;2023-04-24T07:20:04;5.25;;;0.90;;
44766;SDS011;30487;48.716;9.272;2023-04-24T07:22:30;1.88;;;1.00;;
44766;SDS011;30487;48.716;9.272;2023-04-24T07:24:56;1.77;;;1.00;;
44766;SDS011;30487;48.716;9.272;2023-04-24T07:27:21;1.55;;;1.00;;
44766;SDS011;30487;48.716;9.272;2023-04-24T07:29:47;1.92;;;0.88;;
44766;SDS011;30487;48.716;9.272;2023-04-24T07:32:13;1.13;;;0.82;;
44766;SDS011;30487;48.716;9.272;2023-04-24T07:34:39;2.50;;;0.90;;
44766;SDS011;30487;48.716;9.272;2023-04-24T07:37:05;1.83;;;0.70;;
44766;SDS011;30487;48.716;9.272;2023-04-24T07:39:30;1.83;;;0.90;;
44766;SDS011;30487;48.716;9.272;2023-04-24T07:41:56;1.83;;;0.70;;
44766;SDS011;30487;48.716;9.272;2023-04-24T07:44:23;2.13;;;0.70;;
44766;SDS011;30487;48.716;9.272;2023-04-24T07:46:49;1.90;;;0.50;;
44766;SDS011;30487;48.716;9.272;2023-04-24T07:49:14;2.55;;;0.80;;
44766;SDS011;30487;48.716;9.272;2023-04-24T07:51:40;1.38;;;0.70;;
44766;SDS011;30487;48.716;9.272;2023-04-24T07:54:06;1.85;;;0.70;;
44766;SDS011;30487;48.716;9.272;2023-04-24T07:56:32;2.25;;;0.60;;
44766;SDS011;30487;48.716;9.272;2023-04-24T07:58:58;1.17;;;0.73;;
44766;SDS011;30487;48.716;9.272;2023-04-24T08:01:24;2.47;;;0.70;;
44766;SDS011;30487;48.716;9.272;2023-04-24T08:03:50;1.60;;;0.70;;
44766;SDS011;30487;48.716;9.272;2023-04-24T08:06:16;1.48;;;0.80;;
44766;SDS011;30487;48.716;9.272;2023-04-24T08:08:41;1.00;;;0.70;;
44766;SDS011;30487;48.716;9.272;2023-04-24T08:11:07;1.38;;;0.90;;
44766;SDS011;30487;48.716;9.272;2023-04-24T08:13:33;2.05;;;0.60;;
44766;SDS011;30487;48.716;9.272;2023-04-24T08:15:58;1.27;;;0.73;;
44766;SDS011;30487;48.716;9.272;2023-04-24T08:18:24;2.00;;;0.60;;
44766;SDS011;30487;48.716;9.272;2023-04-24T08:20:50;1.10;;;0.60;;
44766;SDS011;30487;48.716;9.272;2023-04-24T08:23:15;1.42;;;0.60;;
44766;SDS011;30487;48.716;9.272;2023-04-24T08:25:41;2.22;;;0.70;;
44766;SDS011;30487;48.716;9.272;2023-04-24T08:28:07;3.92;;;0.90;;
44766;SDS011;30487;48.716;9.272;2023-04-24T08:30:35;2.00;;;0.70;;
44766;SDS011;30487;48.716;9.272;2023-04-24T08:33:01;2.45;;;0.70;;
44766;SDS011;30487;48.716;9.272;2023-04-24T08:35:27;1.63;;;0.93;;
44766;SDS011;30487;48.716;9.272;2023-04-24T08:37:53;0.98;;;0.60;;
44766;SDS011;30487;48.716;9.272;2023-04-24T08:40:18;2.17;;;0.82;;
44766;SDS011;30487;48.716;9.272;2023-04-24T08:42:51;1.05;;;0.60;;
44766;SDS011;30487;48.716;9.272;2023-04-24T08:45:21;4.45;;;0.73;;
44766;SDS011;30487;48.716;9.272;2023-04-24T08:47:47;2.30;;;0.80;;
44766;SDS011;30487;48.716;9.272;2023-04-24T08:50:14;1.95;;;0.80;;
44766;SDS011;30487;48.716;9.272;2023-04-24T08:52:41;1.52;;;0.70;;
44766;SDS011;30487;48.716;9.272;2023-04-24T08:55:07;2.67;;;0.82;;
44766;SDS011;30487;48.716;9.272;2023-04-24T08:57:34;4.60;;;1.00;;
44766;SDS011;30487;48.716;9.272;2023-04-24T09:00:01;1.38;;;0.80;;
44766;SDS011;30487;48.716;9.272;2023-04-24T09:02:28;1.85;;;0.80;;
44766;SDS011;30487;48.716;9.272;2023-04-24T09:04:54;2.22;;;0.85;;
44766;SDS011;30487;48.716;9.272;2023-04-24T09:07:22;1.50;;;0.75;;
44766;SDS011;30487;48.716;9.272;2023-04-24T09:09:50;2.67;;;0.93;;
44766;SDS011;30487;48.716;9.272;2023-04-24T09:12:16;3.50;;;0.70;;
44766;SDS011;30487;48.716;9.272;2023-04-24T09:14:42;1.27;;;0.70;;
44766;SDS011;30487;48.716;9.272;2023-04-24T09:17:10;2.72;;;0.80;;
44766;SDS011;30487;48.716;9.272;2023-04-24T09:19:36;1.20;;;0.75;;
44766;SDS011;30487;48.716;9.272;2023-04-24T09:22:05;2.92;;;0.80;;
44766;SDS011;30487;48.716;9.272;2023-04-24T09:24:31;1.85;;;0.82;;
44766;SDS011;30487;48.716;9.272;2023-04-24T09:26:58;3.70;;;1.00;;
44766;SDS011;30487;48.716;9.272;2023-04-24T09:29:26;2.42;;;0.85;;
44766;SDS011;30487;48.716;9.272;2023-04-24T09:31:52;2.38;;;1.00;;
44766;SDS011;30487;48.716;9.272;2023-04-24T09:34:24;2.30;;;1.17;;
44766;SDS011;30487;48.716;9.272;2023-04-24T09:36:52;2.58;;;0.90;;
44766;SDS011;30487;48.716;9.272;2023-04-24T09:39:18;1.80;;;0.70;;
44766;SDS011;30487;48.716;9.272;2023-04-24T09:41:53;2.03;;;0.70;;
44766;SDS011;30487;48.716;9.272;2023-04-24T09:44:27;2.17;;;0.98;;
44766;SDS011;30487;48.716;9.272;2023-04-24T09:46:57;3.20;;;1.08;;
44766;SDS011;30487;48.716;9.272;2023-04-24T09:49:24;2.05;;;0.80;;
44766;SDS011;30487;48.716;9.272;2023-04-24T09:52:04;2.40;;;0.60;;
44766;SDS011;30487;48.716;9.272;2023-04-24T09:54:32;1.98;;;0.90;;
44766;SDS011;30487;48.716;9.272;2023-04-24T09:56:58;1.70;;;0.68;;
44766;SDS011;30487;48.716;9.272;2023-04-24T09:59:25;1.67;;;0.70;;
44766;SDS011;30487;48.716;9.272;2023-04-24T10:01:51;1.98;;;0.50;;
44766;SDS011;30487;48.716;9.272;2023-04-24T10:06:43;0.75;;;0.50;;
44766;SDS011;30487;48.716;9.272;2023-04-24T10:09:09;0.63;;;0.50;;
44766;SDS011;30487;48.716;9.272;2023-04-24T10:11:37;1.40;;;0.60;;
44766;SDS011;30487;48.716;9.272;2023-04-24T10:14:06;3.90;;;0.70;;
44766;SDS011;30487;48.716;9.272;2023-04-24T10:16:31;0.85;;;0.50;;
44766;SDS011;30487;48.716;9.272;2023-04-24T10:18:58;1.65;;;0.68;;
44766;SDS011;30487;48.716;9.272;2023-04-24T10:21:25;1.85;;;0.70;;
44766;SDS011;30487;48.716;9.272;2023-04-24T10:23:51;3.05;;;0.82;;
44766;SDS011;30487;48.716;9.272;2023-04-24T10:26:18;2.03;;;0.57;;
44766;SDS011;30487;48.716;9.272;2023-04-24T10:28:45;1.10;;;0.55;;
44766;SDS011;30487;48.716;9.272;2023-04-24T10:31:12;3.40;;;0.88;;
44766;SDS011;30487;48.716;9.272;2023-04-24T10:33:41;1.13;;;0.50;;
44766;SDS011;30487;48.716;9.272;2023-04-24T10:36:09;1.17;;;0.57;;
44766;SDS011;30487;48.716;9.272;2023-04-24T10:38:35;1.38;;;0.60;;
44766;SDS011;30487;48.716;9.272;2023-04-24T10:41:07;1.27;;;0.70;;
44766;SDS011;30487;48.716;9.272;2023-04-24T10:43:34;2.28;;;0.70;;
44766;SDS011;30487;48.716;9.272;2023-04-24T10:46:00;1.27;;;0.68;;
44766;SDS011;30487;48.716;9.272;2023-04-24T10:48:27;1.50;;;0.55;;
44766;SDS011;30487;48.716;9.272;2023-04-24T10:50:53;1.02;;;0.50;;
44766;SDS011;30487;48.716;9.272;2023-04-24T10:53:20;0.82;;;0.50;;
44766;SDS011;30487;48.716;9.272;2023-04-24T10:58:13;0.75;;;0.50;;
44766;SDS011;30487;48.716;9.272;2023-04-24T11:00:42;1.52;;;0.65;;
44766;SDS011;30487;48.716;9.272;2023-04-24T11:06:15;2.20;;;0.68;;
44766;SDS011;30487;48.716;9.272;2023-04-24T11:08:53;1.48;;;0.50;;
44766;SDS011;30487;48.716;9.272;2023-04-24T11:11:28;1.35;;;0.50;;
44766;SDS011;30487;48.716;9.272;2023-04-24T11:16:23;2.50;;;0.52;;
44766;SDS011;30487;48.716;9.272;2023-04-24T11:19:05;0.90;;;0.60;;
44766;SDS011;30487;48.716;9.272;2023-04-24T11:21:38;0.82;;;0.43;;
44766;SDS011;30487;48.716;9.272;2023-04-24T11:24:26;1.55;;;0.68;;
44766;SDS011;30487;48.716;9.272;2023-04-24T11:29:45;1.33;;;0.60;;
44766;SDS011;30487;48.716;9.272;2023-04-24T11:37:35;2.40;;;0.80;;
44766;SDS011;30487;48.716;9.272;2023-04-24T11:40:02;1.52;;;0.60;;
44766;SDS011;30487;48.716;9.272;2023-04-24T11:42:33;1.63;;;0.80;;
44766;SDS011;30487;48.716;9.272;2023-04-24T11:47:52;3.58;;;0.68;;
44766;SDS011;30487;48.716;9.272;2023-04-24T11:50:19;1.33;;;0.75;;
44766;SDS011;30487;48.716;9.272;2023-04-24T11:52:46;1.67;;;0.70;;
44766;SDS011;30487;48.716;9.272;2023-04-24T11:57:43;1.00;;;0.55;;
44766;SDS011;30487;48.716;9.272;2023-04-24T12:00:20;1.25;;;0.60;;
44766;SDS011;30487;48.716;9.272;2023-04-24T12:03:06;2.97;;;0.80;;
44766;SDS011;30487;48.716;9.272;2023-04-24T12:05:33;0.98;;;0.60;;
44766;SDS011;30487;48.716;9.272;2023-04-24T12:08:00;2.45;;;0.70;;
44766;SDS011;30487;48.716;9.272;2023-04-24T12:10:27;2.05;;;0.80;;
44766;SDS011;30487;48.716;9.272;2023-04-24T12:12:54;2.65;;;0.60;;
44766;SDS011;30487;48.716;9.272;2023-04-24T12:15:21;1.77;;;0.70;;
44766;SDS011;30487;48.716;9.272;2023-04-24T12:17:48;1.42;;;0.68;;
44766;SDS011;30487;48.716;9.272;2023-04-24T12:20:16;1.35;;;0.80;;
44766;SDS011;30487;48.716;9.272;2023-04-24T12:22:46;1.80;;;0.60;;
44766;SDS011;30487;48.716;9.272;2023-04-24T12:25:13;1.58;;;0.77;;
44766;SDS011;30487;48.716;9.272;2023-04-24T12:27:40;1.63;;;0.68;;
44766;SDS011;30487;48.716;9.272;2023-04-24T12:30:10;1.80;;;0.70;;
44766;SDS011;30487;48.716;9.272;2023-04-24T12:32:41;1.40;;;0.70;;
44766;SDS011;30487;48.716;9.272;2023-04-24T12:35:14;2.15;;;0.73;;
44766;SDS011;30487;48.716;9.272;2023-04-24T12:37:45;2.17;;;0.80;;
44766;SDS011;30487;48.716;9.272;2023-04-24T12:40:11;3.63;;;0.60;;
44766;SDS011;30487;48.716;9.272;2023-04-24T12:42:44;1.45;;;0.90;;
44766;SDS011;30487;48.716;9.272;2023-04-24T12:45:11;1.90;;;0.80;;
44766;SDS011;30487;48.716;9.272;2023-04-24T12:47:38;2.15;;;0.88;;
44766;SDS011;30487;48.716;9.272;2023-04-24T12:50:05;1.73;;;0.70;;
44766;SDS011;30487;48.716;9.272;2023-04-24T12:52:31;1.67;;;0.90;;
44766;SDS011;30487;48.716;9.272;2023-04-24T12:54:58;2.67;;;0.90;;
44766;SDS011;30487;48.716;9.272;2023-04-24T12:57:25;1.45;;;0.65;;
44766;SDS011;30487;48.716;9.272;2023-04-24T12:59:55;2.03;;;0.95;;
44766;SDS011;30487;48.716;9.272;2023-04-24T13:02:22;2.15;;;0.70;;
44766;SDS011;30487;48.716;9.272;2023-04-24T13:04:48;3.25;;;0.85;;
44766;SDS011;30487;48.716;9.272;2023-04-24T13:07:14;1.75;;;0.80;;
44766;SDS011;30487;48.716;9.272;2023-04-24T13:09:41;1.50;;;0.70;;
44766;SDS011;30487;48.716;9.272;2023-04-24T13:12:08;1.52;;;0.70;;
44766;SDS011;30487;48.716;9.272;2023-04-24T13:14:34;1.98;;;0.70;;
44766;SDS011;30487;48.716;9.272;2023-04-24T13:17:00;1.88;;;0.90;;
44766;SDS011;30487;48.716;9.272;2023-04-24T13:19:26;1.17;;;0.60;;
44766;SDS011;30487;48.716;9.272;2023-04-24T13:21:53;1.17;;;0.70;;
44766;SDS011;30487;48.716;9.272;2023-04-24T13:24:20;3.88;;;0.80;;
44766;SDS011;30487;48.716;9.272;2023-04-24T13:26:49;3.55;;;1.02;;
44766;SDS011;30487;48.716;9.272;2023-04-24T13:29:15;2.65;;;0.70;;
44766;SDS011;30487;48.716;9.272;2023-04-24T13:31:41;1.33;;;0.70;;
44766;SDS011;30487;48.716;9.272;2023-04-24T13:34:06;1.60;;;0.73;;
44766;SDS011;30487;48.716;9.272;2023-04-24T13:36:32;1.45;;;0.80;;
44766;SDS011;30487;48.716;9.272;2023-04-24T13:38:58;1.70;;;0.80;;
44766;SDS011;30487;48.716;9.272;2023-04-24T13:41:23;1.50;;;0.90;;
44766;SDS011;30487;48.716;9.272;2023-04-24T13:43:49;2.08;;;0.90;;
44766;SDS011;30487;48.716;9.272;2023-04-24T13:46:15;2.08;;;0.75;;
44766;SDS011;30487;48.716;9.272;2023-04-24T13:48:41;2.90;;;1.20;;
44766;SDS011;30487;48.716;9.272;2023-04-24T13:51:07;1.35;;;0.75;;
44766;SDS011;30487;48.716;9.272;2023-04-24T13:53:32;1.77;;;0.80;;
44766;SDS011;30487;48.716;9.272;2023-04-24T13:56:01;1.80;;;0.80;;
44766;SDS011;30487;48.716;9.272;2023-04-24T13:58:27;1.45;;;0.80;;
44766;SDS011;30487;48.716;9.272;2023-04-24T14:00:52;1.70;;;0.75;;
44766;SDS011;30487;48.716;9.272;2023-04-24T14:03:18;1.73;;;1.00;;
44766;SDS011;30487;48.716;9.272;2023-04-24T14:05:43;1.30;;;0.80;;
44766;SDS011;30487;48.716;9.272;2023-04-24T14:08:09;1.88;;;0.90;;
44766;SDS011;30487;48.716;9.272;2023-04-24T14:10:35;2.65;;;0.90;;
44766;SDS011;30487;48.716;9.272;2023-04-24T14:13:00;1.73;;;0.90;;
44766;SDS011;30487;48.716;9.272;2023-04-24T14:15:26;1.60;;;0.90;;
44766;SDS011;30487;48.716;9.272;2023-04-24T14:17:51;2.25;;;0.90;;
44766;SDS011;30487;48.716;9.272;2023-04-24T14:20:17;1.77;;;0.90;;
44766;SDS011;30487;48.716;9.272;2023-04-24T14:22:43;2.17;;;1.00;;
44766;SDS011;30487;48.716;9.272;2023-04-24T14:25:08;1.52;;;0.80;;
44766;SDS011;30487;48.716;9.272;2023-04-24T14:27:34;1.35;;;0.80;;
44766;SDS011;30487;48.716;9.272;2023-04-24T14:30:00;1.63;;;0.82;;
44766;SDS011;30487;48.716;9.272;2023-04-24T14:32:26;2.28;;;1.10;;
44766;SDS011;30487;48.716;9.272;2023-04-24T14:34:52;2.13;;;0.80;;
44766;SDS011;30487;48.716;9.272;2023-04-24T14:37:17;1.55;;;0.70;;
44766;SDS011;30487;48.716;9.272;2023-04-24T14:39:44;3.17;;;1.10;;
44766;SDS011;30487;48.716;9.272;2023-04-24T14:42:10;2.95;;;0.95;;
44766;SDS011;30487;48.716;9.272;2023-04-24T14:44:35;3.78;;;0.90;;
44766;SDS011;30487;48.716;9.272;2023-04-24T14:47:01;2.72;;;1.10;;
44766;SDS011;30487;48.716;9.272;2023-04-24T14:49:27;3.00;;;0.95;;
44766;SDS011;30487;48.716;9.272;2023-04-24T14:51:52;1.70;;;0.90;;
44766;SDS011;30487;48.716;9.272;2023-04-24T14:54:18;2.80;;;1.00;;
44766;SDS011;30487;48.716;9.272;2023-04-24T14:56:44;2.70;;;1.00;;
44766;SDS011;30487;48.716;9.272;2023-04-24T14:59:10;2.10;;;1.00;;
44766;SDS011;30487;48.716;9.272;2023-04-24T15:01:36;2.42;;;0.90;;
44766;SDS011;30487;48.716;9.272;2023-04-24T15:04:01;2.70;;;1.00;;
44766;SDS011;30487;48.716;9.272;2023-04-24T15:06:27;3.10;;;1.20;;
44766;SDS011;30487;48.716;9.272;2023-04-24T15:08:52;1.83;;;0.90;;